Terminal Aerodrome Forecast
Issued by NWS Cleveland, OH

Home | Current Version | Previous Version | Graphics & Text | Print | Product List | Glossary On
Versions: 1 2 3 4 5 6 7 8 9 10 11 12 13 14 15 16 17 18 19 20 21 22 23 24 25 26 27 28 29 30 31 32 33 34 35
513
FTUS41 KCLE 261741
TAFCLE
TAF
KCLE 261741Z 2618/2724 18012G20KT 6SM -RA BKN035 OVC070
     FM262000 19010KT 5SM -SHRA BKN025 OVC035
      TEMPO 2620/2623 2SM SHRA OVC015
     FM270100 20007KT 6SM -SHRA VCTS BKN025CB OVC035
      TEMPO 2701/2703 2SM -TSRA BKN015CB
     FM270400 20006KT 5SM BR BKN015
     FM270700 20005KT 4SM BR OVC008
     FM271400 22006KT P6SM OVC015
     FM271800 23008KT P6SM BKN025=

USA.gov is the U.S. government's official web portal to all federal, state and local government web resources and services.